»·PEaware :: ECADR KSBA-KSNA

ECADR :: KSBA-KSNA

FLIGHT INFORMATION

Flight Status: Arrived
Operator: Unknown
More flights by this operator :: More flights under this callsign
Pilot: Adrián R. (20842)
Aircraft: BEECH AIRCRAFT DEBONAIR BONANZA
(BE33)
More flights by this aircraft type
Origin: KSBA Santa Barbara Mun
United States
Destination: KSNA John Wayne-Orange Co
United States
More flights between these airports :: More routes between these airports
Route: COASTAL ROUTE L A BRAVO
File this flight plan on PilotEdge
Remarks:
Altitude:
(Current/Filed)
5,500ft
Speed:
(Current/Filed)
160kts
Departed: 03-Nov-18 09:29 AM
Arrived: 03-Nov-18 10:23 AM
Distance/Time
Traveled:
108nm/0:53
Distance/Time
To Go:
Arrived

Flight Plot

Page will automatically refresh every two minutes.

Flight plan parsing failed; only flown route is shown


Map Options




Map Legend


Flown Route
Filed Route
Departure Airport
Arrival Airport
Navaid (VOR, NDB)
Fix

Horizontal Profiles

Position Reports

Time Latitude Longitude Heading Altitude Ground
Speed
03-Nov-18 09:01 34.423083 -119.836091 161 16ft 0kts
03-Nov-18 09:02 34.423083 -119.836091 161 16ft 0kts
03-Nov-18 09:03 34.423083 -119.836091 161 16ft 0kts
03-Nov-18 09:04 34.423083 -119.836091 161 16ft 0kts
03-Nov-18 09:05 34.423083 -119.836091 161 16ft 0kts
03-Nov-18 09:06 34.423083 -119.836091 161 16ft 0kts
03-Nov-18 09:07 34.423083 -119.836091 161 16ft 0kts
03-Nov-18 09:08 34.423083 -119.836091 161 16ft 0kts
03-Nov-18 09:09 34.423083 -119.836091 161 16ft 0kts
03-Nov-18 09:10 34.423083 -119.836091 161 16ft 0kts
03-Nov-18 09:11 34.423083 -119.836091 161 16ft 0kts
03-Nov-18 09:12 34.423083 -119.836091 161 16ft 0kts
03-Nov-18 09:13 34.423083 -119.836091 161 16ft 0kts
03-Nov-18 09:14 34.423083 -119.836091 161 16ft 0kts
03-Nov-18 09:15 34.423083 -119.836091 161 16ft 0kts
03-Nov-18 09:16 34.423083 -119.836091 161 16ft 0kts
03-Nov-18 09:17 34.423083 -119.836091 161 16ft 0kts
03-Nov-18 09:18 34.423083 -119.836091 161 16ft 0kts
03-Nov-18 09:19 34.423083 -119.836091 161 16ft 0kts
03-Nov-18 09:20 34.423083 -119.836091 161 16ft 0kts
03-Nov-18 09:21 34.423083 -119.836091 161 16ft 0kts
03-Nov-18 09:22 34.423083 -119.836091 161 16ft 0kts
03-Nov-18 09:23 34.423083 -119.836091 161 16ft 0kts
03-Nov-18 09:24 34.423083 -119.836091 161 16ft 0kts
03-Nov-18 09:25 34.422908 -119.836245 233 16ft 6kts
03-Nov-18 09:26 34.426187 -119.838199 345 16ft 24kts
03-Nov-18 09:27 34.430872 -119.839840 227 16ft 0kts
03-Nov-18 09:28 34.430872 -119.839840 227 16ft 0kts
03-Nov-18 09:29 34.430872 -119.839840 227 16ft 0kts
03-Nov-18 09:30 34.430872 -119.839840 227 16ft 0kts
03-Nov-18 09:31 34.430858 -119.839858 225 16ft 3kts
03-Nov-18 09:32 34.425147 -119.838649 164 57ft 89kts
03-Nov-18 09:33 34.397006 -119.830609 164 1035ft 118kts
03-Nov-18 09:34 34.361867 -119.820696 164 1576ft 148kts
03-Nov-18 09:35 34.351165 -119.784101 72 2600ft 124kts
03-Nov-18 09:36 34.360662 -119.745879 71 3503ft 118kts
03-Nov-18 09:37 34.369571 -119.709452 71 4417ft 110kts
03-Nov-18 09:38 34.374944 -119.673371 88 5241ft 110kts
03-Nov-18 09:39 34.367372 -119.633134 103 5506ft 142kts
03-Nov-18 09:40 34.354281 -119.586176 105 5503ft 151kts
03-Nov-18 09:41 34.340584 -119.537892 105 5502ft 151kts
03-Nov-18 09:42 34.326934 -119.489788 106 5503ft 150kts
03-Nov-18 09:43 34.313349 -119.442008 106 5504ft 150kts
03-Nov-18 09:44 34.299682 -119.394038 107 5487ft 151kts
03-Nov-18 09:45 34.286112 -119.346496 107 5489ft 150kts
03-Nov-18 09:46 34.274975 -119.307540 108 5491ft 150kts
03-Nov-18 09:47 34.261309 -119.259800 107 5490ft 150kts
03-Nov-18 09:48 34.250348 -119.212618 100 5489ft 150kts
03-Nov-18 09:49 34.241638 -119.163066 100 5487ft 151kts
03-Nov-18 09:50 34.232447 -119.113500 100 5485ft 152kts
03-Nov-18 09:51 34.222740 -119.063636 100 5484ft 153kts
03-Nov-18 09:52 34.212661 -119.013549 100 5483ft 154kts
03-Nov-18 09:53 34.202570 -118.962730 100 5484ft 156kts
03-Nov-18 09:54 34.192674 -118.911630 100 5484ft 157kts
03-Nov-18 09:55 34.182974 -118.860105 100 5485ft 158kts
03-Nov-18 09:56 34.176818 -118.807693 94 5485ft 158kts
03-Nov-18 09:57 34.172152 -118.754702 93 5474ft 159kts
03-Nov-18 09:58 34.167551 -118.701391 93 5476ft 159kts
03-Nov-18 09:59 34.163046 -118.647914 93 5481ft 160kts
03-Nov-18 10:00 34.158671 -118.594352 93 5487ft 161kts
03-Nov-18 10:01 34.148104 -118.542635 128 5487ft 163kts
03-Nov-18 10:02 34.109644 -118.515714 158 5509ft 163kts
03-Nov-18 10:03 34.067574 -118.495849 157 5509ft 164kts
03-Nov-18 10:04 34.025227 -118.475668 157 5509ft 164kts
03-Nov-18 10:05 33.983439 -118.455692 157 5509ft 164kts
03-Nov-18 10:06 33.941292 -118.434526 151 5509ft 164kts
03-Nov-18 10:07 33.905154 -118.401553 138 5509ft 164kts
03-Nov-18 10:08 33.871775 -118.366397 136 5508ft 163kts
03-Nov-18 10:09 33.839849 -118.332205 136 5506ft 164kts
03-Nov-18 10:10 33.807929 -118.298092 136 5507ft 164kts
03-Nov-18 10:11 33.773468 -118.261318 136 5506ft 165kts
03-Nov-18 10:12 33.738969 -118.224602 137 5505ft 166kts
03-Nov-18 10:13 33.704353 -118.187808 137 5454ft 168kts
03-Nov-18 10:14 33.668764 -118.150081 137 4797ft 168kts
03-Nov-18 10:15 33.650644 -118.102521 105 3882ft 147kts
03-Nov-18 10:16 33.640028 -118.058255 104 2963ft 132kts
03-Nov-18 10:16 33.647380 -118.026825 47 2206ft 125kts
03-Nov-18 10:17 33.670080 -117.997088 46 1522ft 115kts
03-Nov-18 10:19 33.695041 -117.964403 46 1507ft 121kts
03-Nov-18 10:19 33.714233 -117.939011 46 1505ft 124kts
03-Nov-18 10:20 33.737699 -117.907936 46 1506ft 126kts
03-Nov-18 10:21 33.750573 -117.873849 125 1475ft 126kts
03-Nov-18 10:22 33.730297 -117.840447 136 1329ft 120kts
03-Nov-18 10:23 33.705923 -117.849623 217 740ft 88kts
03-Nov-18 10:24 33.686930 -117.861583 209 197ft 72kts
03-Nov-18 10:25 33.675957 -117.869822 296 59ft 4kts
03-Nov-18 10:26 33.675961 -117.869833 295 59ft 0kts
03-Nov-18 10:27 33.675961 -117.869834 295 59ft 0kts
03-Nov-18 10:28 33.675961 -117.869834 295 59ft 0kts
03-Nov-18 10:29 33.675961 -117.869834 295 59ft 0kts
03-Nov-18 10:30 33.675961 -117.869834 295 59ft 0kts
03-Nov-18 10:31 33.675961 -117.869834 295 59ft 0kts
03-Nov-18 10:32 33.675476 -117.870432 219 60ft 12kts
03-Nov-18 10:33 33.676273 -117.871847 217 60ft 0kts
03-Nov-18 10:34 33.676274 -117.871847 217 60ft 0kts

Navigation Log

Ident Type
Flight plan parsing failed, navigation log unavailable